Time;durP1;ratioP1;P1;durP2;ratioP2;P2;SDS_P1;SDS_P2;PMS_P1;PMS_P2;Temp;Humidity;BMP_temperature;BMP_pressure;BME280_temperature;BME280_humidity;BME280_pressure;Samples;Min_cycle;Max_cycle;Signal;HPM_P1;HPM_P2
2022/09/06 00:01:50;;;;;;;2.15;1.38;;;;;;;17.50;44.66;101756.75;5057661;28;20227;-60
2022/09/06 00:04:16;;;;;;;2.70;1.48;;;;;;;17.69;45.39;101761.81;5055187;28;20227;-60
2022/09/06 00:06:43;;;;;;;1.58;1.23;;;;;;;17.69;47.19;101760.06;5054550;28;20242;-61
2022/09/06 00:09:11;;;;;;;1.48;1.20;;;;;;;17.78;45.00;101754.63;5059584;28;20239;-59
2022/09/06 00:11:37;;;;;;;2.30;1.40;;;;;;;17.50;44.11;101762.06;5060191;28;20239;-60
2022/09/06 00:14:06;;;;;;;1.80;1.40;;;;;;;17.25;45.82;101752.66;5061782;28;20235;-60
2022/09/06 00:16:33;;;;;;;3.88;1.92;;;;;;;17.56;49.13;101750.50;5054687;28;20449;-60
2022/09/06 00:19:00;;;;;;;1.83;1.20;;;;;;;17.66;48.09;101754.78;5060247;28;20246;-61
2022/09/06 00:21:28;;;;;;;2.90;1.15;;;;;;;17.48;44.57;101755.91;5060438;28;20238;-61
2022/09/06 00:23:55;;;;;;;1.52;1.23;;;;;;;17.40;44.39;101748.03;5058966;28;21008;-61
2022/09/06 00:26:23;;;;;;;1.65;1.27;;;;;;;17.28;45.98;101753.50;5055237;28;20250;-61
2022/09/06 00:28:50;;;;;;;8.18;1.20;;;;;;;17.45;45.81;101747.13;5060151;28;20231;-60
2022/09/06 00:31:18;;;;;;;1.20;1.02;;;;;;;17.53;48.52;101753.19;5062112;28;20239;-61
2022/09/06 00:33:45;;;;;;;5.00;1.38;;;;;;;17.64;45.93;101757.44;5056187;28;20227;-61
2022/09/06 00:36:12;;;;;;;1.77;1.00;;;;;;;17.44;45.13;101746.22;5045653;28;20744;-61
2022/09/06 00:38:39;;;;;;;1.42;1.33;;;;;;;17.51;47.87;101754.97;5059534;28;20224;-62
2022/09/06 00:41:07;;;;;;;2.72;1.05;;;;;;;17.54;46.55;101752.28;5060825;28;20258;-61
2022/09/06 00:43:35;;;;;;;1.67;1.40;;;;;;;17.53;46.56;101748.75;5064055;28;20234;-61
2022/09/06 00:46:02;;;;;;;4.20;1.20;;;;;;;17.45;46.59;101755.94;5059971;28;20239;-61
2022/09/06 00:48:29;;;;;;;2.72;1.02;;;;;;;17.27;46.02;101749.09;5051214;28;20247;-60
2022/09/06 00:50:58;;;;;;;2.58;1.15;;;;;;;17.29;47.37;101754.38;5058168;28;20510;-62
2022/09/06 00:53:25;;;;;;;3.72;1.20;;;;;;;17.30;46.18;101749.03;5060215;28;20239;-60
2022/09/06 00:55:52;;;;;;;1.83;1.08;;;;;;;17.17;46.32;101756.28;5069408;28;20231;-61
2022/09/06 00:58:18;;;;;;;1.27;1.10;;;;;;;17.21;46.17;101756.25;5065180;28;20250;-62
2022/09/06 01:00:46;;;;;;;2.88;1.05;;;;;;;17.11;52.44;101758.13;5060551;28;20235;-60
2022/09/06 01:03:13;;;;;;;2.08;1.20;;;;;;;17.17;48.45;101756.28;5045569;28;20239;-62
2022/09/06 01:05:50;;;;;;;3.65;1.10;;;;;;;17.09;47.18;101766.13;5043871;28;20236;-61
2022/09/06 01:08:21;;;;;;;2.97;1.08;;;;;;;17.12;48.52;101752.78;5042226;28;20228;-60
2022/09/06 01:11:05;;;;;;;1.42;1.08;;;;;;;17.07;46.92;101749.34;5044666;28;20228;-61
2022/09/06 01:13:38;;;;;;;3.13;1.13;;;;;;;17.09;47.12;101747.56;5044459;28;20243;-61
2022/09/06 01:16:11;;;;;;;1.75;1.00;;;;;;;17.11;51.07;101739.56;5036829;28;20760;-62
2022/09/06 01:18:51;;;;;;;1.55;1.00;;;;;;;17.23;47.42;101739.41;5038835;28;20223;-62
2022/09/06 01:21:29;;;;;;;1.40;1.13;;;;;;;17.19;47.20;101737.69;5047090;28;20220;-62
2022/09/06 01:24:30;;;;;;;0.95;0.90;;;;;;;16.99;48.06;101729.97;5029832;28;20228;-61
2022/09/06 01:27:33;;;;;;;2.17;1.08;;;;;;;17.00;48.06;101742.34;5034545;28;20239;-60
2022/09/06 01:30:04;;;;;;;2.22;1.00;;;;;;;16.89;47.20;101734.50;5037507;28;20224;-60
2022/09/06 01:32:36;;;;;;;2.72;1.42;;;;;;;17.01;48.83;101738.78;5045304;28;20236;-60
2022/09/06 01:35:06;;;;;;;1.35;1.25;;;;;;;16.83;46.98;101734.56;5042401;28;20236;-60
2022/09/06 01:37:33;;;;;;;4.93;0.98;;;;;;;16.79;45.67;101732.84;5036579;28;20238;-61
2022/09/06 01:40:00;;;;;;;1.85;1.25;;;;;;;16.78;48.75;101725.78;5044001;28;20232;-59
2022/09/06 01:42:28;;;;;;;1.63;1.30;;;;;;;16.82;46.36;101724.88;5036996;28;20237;-55
2022/09/06 01:44:56;;;;;;;4.97;1.20;;;;;;;-145.23;100.00;58621.06;5042178;28;20227;-55
2022/09/06 01:47:31;;;;;;;1.90;1.17;;;;;;;-145.23;100.00;58621.06;5040470;28;20231;-57
2022/09/06 01:50:18;;;;;;;2.80;1.13;;;;;;;-145.23;100.00;58621.06;5043634;28;20234;-56
2022/09/06 01:52:56;;;;;;;3.17;1.08;;;;;;;-145.23;100.00;58621.06;5037610;28;20232;-56
2022/09/06 01:55:30;;;;;;;7.22;1.58;;;;;;;-145.23;100.00;58621.06;5038684;28;20928;-55
2022/09/06 01:58:20;;;;;;;3.08;1.15;;;;;;;-145.23;100.00;58621.06;5045261;28;20250;-56
2022/09/06 02:00:51;;;;;;;1.55;1.30;;;;;;;-145.23;100.00;58621.06;5033968;28;20223;-56
2022/09/06 02:03:25;;;;;;;2.00;1.10;;;;;;;-145.23;100.00;58621.06;5041901;28;20295;-56
2022/09/06 02:05:54;;;;;;;1.98;1.05;;;;;;;-145.23;100.00;58621.06;5039149;28;20757;-56
2022/09/06 02:08:23;;;;;;;2.97;1.10;;;;;;;-145.23;100.00;58621.06;5044220;28;20259;-55
2022/09/06 02:10:55;;;;;;;6.53;1.30;;;;;;;-145.23;100.00;58621.06;5044363;28;20234;-56
2022/09/06 02:13:22;;;;;;;1.27;0.70;;;;;;;-145.23;100.00;58621.06;5041747;28;20772;-56
2022/09/06 02:15:52;;;;;;;1.33;1.10;;;;;;;-145.23;100.00;58621.06;5042463;28;20251;-55
2022/09/06 02:18:23;;;;;;;0.70;0.70;;;;;;;-145.23;100.00;58621.06;5033973;28;20228;-56
2022/09/06 02:20:51;;;;;;;0.85;0.85;;;;;;;-145.23;100.00;58621.06;5038170;28;20224;-56
2022/09/06 02:23:19;;;;;;;1.15;1.00;;;;;;;-145.23;100.00;58621.06;5037095;28;20243;-56
2022/09/06 02:25:51;;;;;;;3.55;1.05;;;;;;;-145.23;100.00;58621.06;5050531;28;20245;-55
2022/09/06 02:28:18;;;;;;;2.42;1.27;;;;;;;-145.23;100.00;58621.06;5044222;28;20240;-55
2022/09/06 02:30:47;;;;;;;3.08;1.38;;;;;;;-145.23;100.00;58621.06;5044595;28;20232;-55
2022/09/06 02:33:17;;;;;;;4.57;1.40;;;;;;;-145.23;100.00;58621.06;5043941;28;20228;-55
2022/09/06 02:35:46;;;;;;;2.70;1.55;;;;;;;-145.23;100.00;58621.06;5043470;28;20232;-55
2022/09/06 02:38:13;;;;;;;4.28;1.17;;;;;;;-145.23;100.00;58621.06;5052346;28;20255;-55
2022/09/06 02:40:39;;;;;;;3.95;1.42;;;;;;;-145.23;100.00;58621.06;5044792;28;20239;-55
2022/09/06 02:43:07;;;;;;;0.90;0.90;;;;;;;-145.23;100.00;58621.06;5045930;28;20232;-55
2022/09/06 02:45:34;;;;;;;1.10;0.98;;;;;;;-145.23;100.00;58621.06;5045265;28;20290;-57
2022/09/06 02:48:00;;;;;;;1.30;1.20;;;;;;;-145.23;100.00;58621.06;5037610;28;20236;-54
2022/09/06 02:50:26;;;;;;;1.20;1.10;;;;;;;-145.23;100.00;58621.06;5037639;28;20231;-56
2022/09/06 02:53:05;;;;;;;1.83;1.23;;;;;;;16.82;46.36;101724.88;5046439;28;20267;-55
2022/09/06 02:55:31;;;;;;;0.98;0.80;;;;;;;16.04;50.04;101725.56;5038318;28;20315;-55
2022/09/06 02:57:58;;;;;;;2.88;1.30;;;;;;;16.10;50.01;101714.91;5046473;28;20237;-56
2022/09/06 03:00:24;;;;;;;2.75;1.30;;;;;;;15.89;50.64;101720.34;5049222;28;20239;-55
2022/09/06 03:02:51;;;;;;;1.27;1.17;;;;;;;15.97;50.90;101726.50;5033873;28;20235;-55
2022/09/06 03:05:17;;;;;;;2.40;1.00;;;;;;;16.05;52.25;101711.41;5039476;28;20231;-56
2022/09/06 03:07:44;;;;;;;3.17;0.90;;;;;;;16.04;51.09;101712.31;5041042;28;20576;-55
2022/09/06 03:10:12;;;;;;;3.97;1.38;;;;;;;15.91;51.69;101710.66;5042591;28;20275;-56
2022/09/06 03:12:38;;;;;;;2.35;1.73;;;;;;;15.82;51.32;101710.69;5043963;28;20729;-56
2022/09/06 03:15:06;;;;;;;1.10;1.05;;;;;;;15.94;52.25;101710.63;5041124;28;20235;-55
2022/09/06 03:17:33;;;;;;;2.55;1.08;;;;;;;15.88;53.00;101710.66;5042389;28;20467;-54
2022/09/06 03:19:59;;;;;;;1.25;1.15;;;;;;;15.67;52.71;101707.28;5050243;28;20235;-55
2022/09/06 03:22:25;;;;;;;0.90;0.90;;;;;;;15.81;53.85;101706.31;5051352;28;20231;-55
2022/09/06 03:24:52;;;;;;;1.38;1.20;;;;;;;15.87;52.84;101706.28;5040938;28;20228;-57
2022/09/06 03:27:20;;;;;;;1.23;1.05;;;;;;;15.86;54.02;101702.72;5043248;28;20229;-57
2022/09/06 03:29:46;;;;;;;2.53;1.17;;;;;;;15.81;53.30;101701.00;5046218;28;20238;-56
2022/09/06 03:32:13;;;;;;;1.20;1.10;;;;;;;15.79;53.16;101702.78;5041864;28;20236;-55
2022/09/06 03:34:39;;;;;;;2.42;2.17;;;;;;;15.87;54.67;101703.63;5046219;28;20258;-56
2022/09/06 03:37:06;;;;;;;1.40;1.25;;;;;;;15.73;53.08;101701.94;5048253;28;20227;-55
2022/09/06 03:39:32;;;;;;;1.05;0.95;;;;;;;15.82;53.31;101697.47;5045429;28;20227;-55
2022/09/06 03:41:59;;;;;;;2.85;1.60;;;;;;;15.71;54.71;101701.06;5035470;28;20236;-54
2022/09/06 03:44:26;;;;;;;0.90;0.68;;;;;;;15.78;53.82;101695.72;5036143;28;20284;-55
2022/09/06 03:46:53;;;;;;;1.92;1.25;;;;;;;15.72;54.38;101696.63;5040894;28;20250;-55
2022/09/06 03:49:19;;;;;;;1.42;1.33;;;;;;;15.55;54.36;101696.75;5039747;28;20241;-56
2022/09/06 03:51:46;;;;;;;2.50;1.60;;;;;;;15.46;54.63;101688.84;5040770;28;20231;-54
2022/09/06 03:54:12;;;;;;;6.22;1.85;;;;;;;15.56;54.88;101687.91;5037815;28;20232;-56
2022/09/06 03:56:39;;;;;;;2.83;1.52;;;;;;;15.62;54.18;101700.19;5037075;28;20232;-55
2022/09/06 03:59:05;;;;;;;1.85;1.25;;;;;;;15.69;55.25;101694.91;5033063;28;20760;-56
2022/09/06 04:01:33;;;;;;;5.55;1.02;;;;;;;15.69;54.60;101691.41;5030031;28;20238;-58
2022/09/06 04:04:00;;;;;;;6.43;1.88;;;;;;;15.31;55.22;101703.03;5039831;28;20326;-56
2022/09/06 04:06:26;;;;;;;1.38;1.27;;;;;;;15.45;57.48;101695.91;5040245;28;20270;-55
2022/09/06 04:08:53;;;;;;;1.42;1.20;;;;;;;15.40;57.51;101699.47;5038651;28;20239;-55
2022/09/06 04:11:19;;;;;;;1.60;1.42;;;;;;;15.33;56.20;101697.72;5040069;28;20232;-55
2022/09/06 04:13:46;;;;;;;1.38;1.27;;;;;;;15.26;55.93;101691.59;5040381;28;20291;-58
2022/09/06 04:16:12;;;;;;;1.27;1.17;;;;;;;15.26;57.57;101687.16;5043167;28;20251;-55
2022/09/06 04:18:40;;;;;;;1.73;1.38;;;;;;;15.35;56.96;101686.25;5033550;28;20653;-57
2022/09/06 04:21:07;;;;;;;2.63;1.15;;;;;;;15.40;56.36;101694.16;5027709;28;20250;-56
2022/09/06 04:23:33;;;;;;;1.98;1.40;;;;;;;15.53;55.73;101685.28;5031060;28;20228;-55
2022/09/06 04:26:00;;;;;;;5.20;1.88;;;;;;;15.27;56.46;101686.31;5040598;28;20235;-56
2022/09/06 04:28:27;;;;;;;4.85;2.00;;;;;;;15.26;57.00;101687.16;5041158;28;20251;-55
2022/09/06 04:30:54;;;;;;;2.13;1.55;;;;;;;15.27;57.73;101681.00;5041178;28;20232;-57
2022/09/06 04:33:20;;;;;;;4.88;1.83;;;;;;;15.42;58.87;101681.81;5039290;28;20230;-56
2022/09/06 04:35:50;;;;;;;2.03;1.38;;;;;;;15.34;56.61;101673.94;5030301;28;21042;-57
2022/09/06 04:38:16;;;;;;;2.08;1.45;;;;;;;15.27;56.88;101682.78;5044281;28;20238;-56
2022/09/06 04:40:42;;;;;;;1.92;1.20;;;;;;;15.31;57.04;101686.28;5040996;28;20232;-56
2022/09/06 04:43:09;;;;;;;3.33;1.25;;;;;;;15.33;57.07;101679.22;5047025;28;20228;-56
2022/09/06 04:45:35;;;;;;;4.93;1.27;;;;;;;15.44;58.18;101688.88;5041917;28;20737;-56
2022/09/06 04:48:02;;;;;;;2.40;1.77;;;;;;;15.41;58.65;101685.31;5035842;28;20613;-56
2022/09/06 04:50:29;;;;;;;1.58;1.13;;;;;;;15.45;56.70;101676.50;5042332;28;20242;-55
2022/09/06 04:52:57;;;;;;;3.53;1.55;;;;;;;15.46;58.51;101675.59;5044307;28;20236;-55
2022/09/06 04:55:25;;;;;;;5.90;1.50;;;;;;;15.45;57.22;101669.44;5042407;28;20235;-55
2022/09/06 04:57:51;;;;;;;1.60;1.23;;;;;;;15.48;58.05;101665.91;5039625;28;20279;-56
2022/09/06 05:00:18;;;;;;;3.22;1.45;;;;;;;15.38;57.20;101664.19;5038307;28;20243;-57
2022/09/06 05:02:44;;;;;;;1.38;1.17;;;;;;;15.48;58.46;101671.19;5040704;28;20235;-56
2022/09/06 05:05:11;;;;;;;4.25;1.23;;;;;;;15.27;57.63;101662.50;5035648;28;20241;-57
2022/09/06 05:07:38;;;;;;;2.45;2.25;;;;;;;15.38;58.65;101661.56;5041983;28;20228;-55
2022/09/06 05:10:06;;;;;;;1.48;1.30;;;;;;;15.37;58.01;101658.00;5038810;28;20247;-56
2022/09/06 05:12:32;;;;;;;3.13;1.30;;;;;;;15.38;58.19;101665.06;5039685;28;20706;-56
2022/09/06 05:14:59;;;;;;;1.52;1.42;;;;;;;15.41;57.18;101648.28;5044179;28;20243;-56
2022/09/06 05:17:25;;;;;;;1.40;1.30;;;;;;;15.20;57.46;101660.78;5034400;28;20316;-55
2022/09/06 05:19:52;;;;;;;1.77;1.17;;;;;;;15.19;59.00;101652.81;5043796;28;20314;-56
2022/09/06 05:22:18;;;;;;;3.10;2.28;;;;;;;15.35;58.47;101654.50;5044252;28;20236;-57
2022/09/06 05:24:45;;;;;;;4.55;1.75;;;;;;;15.41;58.27;101658.88;5045579;28;20298;-56
2022/09/06 05:27:13;;;;;;;1.35;1.23;;;;;;;15.36;57.91;101660.69;5035617;28;20294;-57
2022/09/06 05:29:39;;;;;;;1.02;0.77;;;;;;;15.50;57.03;101664.09;5045944;28;20247;-57
2022/09/06 05:32:06;;;;;;;2.17;1.20;;;;;;;15.51;56.87;101650.88;5041950;28;20235;-56
2022/09/06 05:34:32;;;;;;;1.80;1.65;;;;;;;15.39;56.93;101650.94;5043963;28;20606;-55
2022/09/06 05:36:59;;;;;;;1.63;1.48;;;;;;;15.42;56.90;101655.34;5043040;28;20240;-54
2022/09/06 05:39:25;;;;;;;2.30;1.55;;;;;;;15.34;56.96;101654.50;5036220;28;20754;-56
2022/09/06 05:41:52;;;;;;;1.35;1.13;;;;;;;15.47;57.05;101664.13;5043441;28;20228;-56
2022/09/06 05:44:19;;;;;;;2.63;1.58;;;;;;;15.39;57.55;101661.53;5035970;28;20241;-55
2022/09/06 05:46:46;;;;;;;1.92;1.35;;;;;;;15.37;57.10;101662.41;5033239;28;20251;-56
2022/09/06 05:49:13;;;;;;;1.92;1.60;;;;;;;15.38;56.90;101664.19;5044959;28;20235;-56
2022/09/06 05:51:40;;;;;;;3.22;1.23;;;;;;;15.42;56.38;101672.09;5046439;28;20250;-56
2022/09/06 05:54:07;;;;;;;5.25;1.75;;;;;;;15.45;57.04;101677.38;5038264;28;20235;-56
2022/09/06 05:56:33;;;;;;;1.73;1.63;;;;;;;15.53;57.13;101669.38;5038046;28;20309;-55
2022/09/06 05:59:00;;;;;;;1.75;1.48;;;;;;;15.54;56.17;101679.06;5033870;28;20243;-57
2022/09/06 06:01:29;;;;;;;2.85;1.73;;;;;;;15.68;57.38;101669.31;5038225;28;20620;-55
2022/09/06 06:03:57;;;;;;;2.45;1.48;;;;;;;15.70;57.20;101656.94;5038694;28;20314;-55
2022/09/06 06:06:25;;;;;;;2.38;1.63;;;;;;;15.69;57.36;101657.84;5041879;28;20223;-56
2022/09/06 06:08:52;;;;;;;2.28;1.50;;;;;;;15.72;56.40;101659.56;5042598;28;20235;-56
2022/09/06 06:11:18;;;;;;;3.55;1.33;;;;;;;15.48;56.09;101652.69;5038716;28;20244;-58
2022/09/06 06:13:45;;;;;;;4.85;1.40;;;;;;;15.69;57.38;101643.75;5036779;28;20223;-56
2022/09/06 06:16:13;;;;;;;2.50;1.55;;;;;;;15.67;55.53;101646.38;5041379;28;20244;-59
2022/09/06 06:18:41;;;;;;;3.67;1.27;;;;;;;15.67;55.57;101640.22;5035804;28;20235;-55
2022/09/06 06:21:12;;;;;;;2.72;2.00;;;;;;;15.77;56.87;101641.03;5035826;28;20617;-58
2022/09/06 06:23:39;;;;;;;2.00;1.52;;;;;;;15.85;56.07;101649.78;5045981;28;20230;-55
2022/09/06 06:26:06;;;;;;;4.60;1.35;;;;;;;15.83;56.69;101646.25;5042278;28;20243;-56
2022/09/06 06:28:33;;;;;;;1.67;1.38;;;;;;;15.84;55.35;101648.91;5042505;28;20232;-55
2022/09/06 06:30:59;;;;;;;2.70;1.23;;;;;;;15.94;55.30;101650.59;5036579;28;20270;-56
2022/09/06 06:33:26;;;;;;;1.60;1.50;;;;;;;15.94;55.27;101644.41;5034822;28;20574;-55
2022/09/06 06:35:58;;;;;;;3.97;1.30;;;;;;;15.96;55.10;101653.22;5044109;28;20289;-55
2022/09/06 06:38:29;;;;;;;1.77;1.65;;;;;;;16.01;54.42;101651.41;5042652;28;20232;-55
2022/09/06 06:40:56;;;;;;;2.60;1.35;;;;;;;16.18;55.51;101644.19;5039273;28;20227;-56
2022/09/06 06:43:22;;;;;;;2.22;1.40;;;;;;;16.20;54.54;101644.16;5030682;28;20322;-56
2022/09/06 06:45:49;;;;;;;3.45;1.77;;;;;;;16.07;54.55;101653.97;5042942;28;20573;-56
2022/09/06 06:48:16;;;;;;;3.72;1.52;;;;;;;16.09;54.20;101646.91;5037044;28;20649;-55
2022/09/06 06:50:42;;;;;;;1.55;1.20;;;;;;;16.25;55.13;101650.31;5045071;28;20362;-57
2022/09/06 06:53:10;;;;;;;1.67;1.52;;;;;;;16.25;54.91;101650.31;5040818;28;20736;-56
2022/09/06 06:55:36;;;;;;;7.30;1.60;;;;;;;16.08;55.06;101639.00;5036273;28;20741;-56
2022/09/06 06:58:03;;;;;;;2.17;1.58;;;;;;;16.33;55.48;101636.97;5032760;28;20235;-55
2022/09/06 07:00:30;;;;;;;6.55;1.85;;;;;;;16.43;54.25;101638.66;5036340;28;20942;-56
2022/09/06 07:02:56;;;;;;;3.40;1.60;;;;;;;16.37;54.49;101633.41;5030061;28;20248;-56
2022/09/06 07:05:23;;;;;;;3.15;1.55;;;;;;;16.42;55.58;101636.88;5037003;28;20239;-56
2022/09/06 07:07:50;;;;;;;2.20;1.48;;;;;;;16.34;55.14;101638.72;5041977;28;20227;-55
2022/09/06 07:10:17;;;;;;;3.15;1.45;;;;;;;16.45;55.27;101642.13;5037829;28;20238;-56
2022/09/06 07:12:44;;;;;;;2.75;1.90;;;;;;;16.51;54.73;101633.25;5030643;28;20737;-56
2022/09/06 07:15:11;;;;;;;3.13;2.08;;;;;;;16.62;54.53;101634.00;5040395;28;20310;-56
2022/09/06 07:17:37;;;;;;;6.32;3.03;;;;;;;16.99;53.64;101639.78;5041293;28;20231;-55
2022/09/06 07:20:04;;;;;;;2.55;1.83;;;;;;;16.91;53.66;101652.25;5039739;28;20311;-57
2022/09/06 07:22:31;;;;;;;4.55;1.60;;;;;;;16.93;54.75;101647.81;5023339;28;20224;-56
2022/09/06 07:24:57;;;;;;;2.15;1.80;;;;;;;17.20;53.99;101658.94;5038135;28;20236;-57
2022/09/06 07:27:25;;;;;;;2.42;1.80;;;;;;;17.19;54.71;101655.41;5038366;28;20252;-57
2022/09/06 07:29:51;;;;;;;3.65;1.90;;;;;;;17.30;54.36;101652.59;5035888;28;20236;-56
2022/09/06 07:32:18;;;;;;;2.20;2.00;;;;;;;17.26;53.50;101648.25;5042129;28;20338;-56
2022/09/06 07:34:44;;;;;;;2.53;2.13;;;;;;;17.10;53.80;101653.78;5040943;28;20228;-55
2022/09/06 07:37:11;;;;;;;6.55;2.78;;;;;;;17.23;54.33;101669.53;5037635;28;20246;-56
2022/09/06 07:39:38;;;;;;;4.88;1.95;;;;;;;17.46;53.75;101659.47;5038183;28;20228;-56
2022/09/06 07:42:05;;;;;;;8.23;2.28;;;;;;;17.28;53.51;101667.69;5040274;28;20247;-56
2022/09/06 07:44:33;;;;;;;4.50;1.98;;;;;;;17.36;53.90;101660.50;5036417;28;20238;-57
2022/09/06 07:47:01;;;;;;;4.18;2.20;;;;;;;17.58;53.65;101656.59;5038137;28;20274;-56
2022/09/06 07:49:28;;;;;;;2.97;2.10;;;;;;;17.48;54.17;101655.03;5027826;28;20228;-56
2022/09/06 07:51:54;;;;;;;3.63;2.72;;;;;;;17.43;54.52;101651.53;5038326;28;20250;-56
2022/09/06 07:54:22;;;;;;;2.67;2.10;;;;;;;17.47;54.21;101645.28;5045248;28;20240;-57
2022/09/06 07:56:48;;;;;;;2.28;2.00;;;;;;;17.46;54.65;101640.88;5042919;28;20634;-57
2022/09/06 07:59:15;;;;;;;3.75;1.95;;;;;;;17.53;54.91;101634.56;5042596;28;20725;-55
2022/09/06 08:01:43;;;;;;;3.33;2.35;;;;;;;17.51;54.79;101644.31;5041354;28;20232;-55
2022/09/06 08:04:12;;;;;;;4.03;2.30;;;;;;;17.67;54.84;101633.47;5032103;28;20848;-55
2022/09/06 08:06:40;;;;;;;4.57;2.65;;;;;;;17.71;54.43;101629.88;5034911;28;20895;-55
2022/09/06 08:09:08;;;;;;;2.10;1.90;;;;;;;17.70;54.74;101629.00;5043659;28;20314;-56
2022/09/06 08:11:36;;;;;;;6.22;2.42;;;;;;;17.66;54.78;101635.28;5035719;28;20243;-55
2022/09/06 08:14:04;;;;;;;4.20;2.38;;;;;;;17.67;54.88;101636.13;5042889;28;20262;-56
2022/09/06 08:16:32;;;;;;;2.70;2.25;;;;;;;17.62;55.10;101637.09;5048041;28;20239;-55
2022/09/06 08:19:02;;;;;;;3.97;2.15;;;;;;;17.89;54.75;101626.94;5040671;28;20239;-57
2022/09/06 08:21:30;;;;;;;3.72;2.97;;;;;;;18.02;54.32;101631.16;5031969;28;20238;-56
2022/09/06 08:23:58;;;;;;;2.33;2.10;;;;;;;18.11;54.23;101640.72;5038552;28;20238;-56
2022/09/06 08:26:26;;;;;;;3.25;2.70;;;;;;;18.28;53.74;101633.31;5051370;28;20243;-57
2022/09/06 08:28:54;;;;;;;2.30;2.03;;;;;;;18.31;53.83;101637.72;5043236;28;20237;-57
2022/09/06 08:31:21;;;;;;;2.97;2.38;;;;;;;18.13;54.25;101642.47;5036790;28;20228;-56
2022/09/06 08:33:47;;;;;;;4.18;2.75;;;;;;;18.19;54.58;101637.94;5039463;28;20714;-55
2022/09/06 08:36:15;;;;;;;4.20;2.80;;;;;;;18.24;54.31;101641.38;5036636;28;20240;-55
2022/09/06 08:38:42;;;;;;;2.85;2.53;;;;;;;18.22;54.85;101637.91;5045111;28;20750;-59
2022/09/06 08:41:11;;;;;;;4.00;2.80;;;;;;;18.12;54.72;101645.16;5037829;28;20228;-56
2022/09/06 08:43:38;;;;;;;3.80;2.35;;;;;;;18.21;54.46;101636.13;5042871;28;20682;-56
2022/09/06 08:46:07;;;;;;;2.78;2.40;;;;;;;18.15;54.92;101641.53;5033109;28;20232;-55
2022/09/06 08:48:35;;;;;;;3.08;2.72;;;;;;;18.16;55.32;101638.00;5036064;28;20297;-56
2022/09/06 08:51:22;;;;;;;5.93;2.85;;;;;;;18.18;55.27;101628.19;5034812;28;20568;-56
2022/09/06 08:53:49;;;;;;;5.28;2.63;;;;;;;18.27;54.76;101630.69;5045745;28;20242;-55
2022/09/06 08:56:17;;;;;;;2.10;1.90;;;;;;;18.34;54.35;101632.34;5040763;28;20239;-55
2022/09/06 08:58:59;;;;;;;3.47;2.45;;;;;;;18.39;54.86;101630.47;5043811;28;20259;-56
2022/09/06 09:01:31;;;;;;;4.22;3.50;;;;;;;18.60;53.82;101616.78;5035343;28;20860;-55
2022/09/06 09:04:02;;;;;;;5.90;2.95;;;;;;;18.58;53.54;101610.59;5040773;28;20857;-56
2022/09/06 09:06:32;;;;;;;3.53;2.65;;;;;;;18.66;53.65;101612.22;5042576;28;20239;-56
2022/09/06 09:09:01;;;;;;;3.92;2.70;;;;;;;18.78;53.60;101618.22;5044032;28;20318;-56
2022/09/06 09:11:32;;;;;;;6.15;3.05;;;;;;;19.03;53.22;101613.22;5040516;28;20691;-55
2022/09/06 09:14:03;;;;;;;4.00;2.50;;;;;;;19.13;52.61;101616.56;5034720;28;20336;-56
2022/09/06 09:16:30;;;;;;;5.30;2.83;;;;;;;18.97;52.65;101617.81;5035561;28;20651;-55
2022/09/06 09:18:59;;;;;;;2.90;2.70;;;;;;;19.01;53.32;101625.69;5039167;28;20236;-56
2022/09/06 09:21:28;;;;;;;5.63;2.55;;;;;;;19.21;52.46;101613.72;5037069;28;20232;-56
2022/09/06 09:23:57;;;;;;;7.72;2.97;;;;;;;19.09;53.15;101612.19;5045425;28;20331;-55
2022/09/06 09:26:26;;;;;;;4.00;3.17;;;;;;;19.26;52.67;101601.16;5046201;28;20260;-55
2022/09/06 09:29:04;;;;;;;2.72;2.35;;;;;;;18.96;52.85;101600.97;5024496;28;20694;-56
2022/09/06 09:31:35;;;;;;;3.65;2.75;;;;;;;19.08;52.84;101590.03;5044939;28;20304;-58
2022/09/06 09:34:03;;;;;;;5.35;3.08;;;;;;;19.08;53.24;101594.47;5046941;28;20240;-55
2022/09/06 09:36:30;;;;;;;5.03;2.80;;;;;;;19.38;52.85;101594.72;5042090;28;20648;-57
2022/09/06 09:38:58;;;;;;;6.63;2.75;;;;;;;19.28;53.63;101591.38;5045012;28;20242;-56
2022/09/06 09:41:28;;;;;;;2.42;2.22;;;;;;;19.22;52.48;101591.50;5032429;28;20367;-56
2022/09/06 09:43:57;;;;;;;4.88;2.72;;;;;;;19.14;52.82;101589.03;5044542;28;20258;-56
2022/09/06 09:46:32;;;;;;;5.35;3.00;;;;;;;19.06;52.35;101577.69;5041809;28;20345;-56
2022/09/06 09:49:05;;;;;;;5.20;2.58;;;;;;;19.02;52.92;101578.66;5034013;28;20243;-56
2022/09/06 09:51:33;;;;;;;4.68;2.72;;;;;;;19.21;52.61;101566.69;5048204;28;20304;-57
2022/09/06 09:54:03;;;;;;;2.75;2.53;;;;;;;18.98;52.58;101588.47;5027333;28;20232;-57
2022/09/06 09:56:34;;;;;;;11.35;2.50;;;;;;;19.23;52.43;101583.47;5039345;28;20289;-56
2022/09/06 09:59:02;;;;;;;4.47;3.50;;;;;;;19.17;52.15;101580.97;5043313;28;20236;-57
2022/09/06 10:01:30;;;;;;;5.30;3.10;;;;;;;19.12;52.24;101572.19;5042849;28;20304;-54
2022/09/06 10:04:04;;;;;;;3.75;3.38;;;;;;;18.99;52.64;101571.63;5046493;28;20875;-55
2022/09/06 10:06:30;;;;;;;3.33;2.63;;;;;;;18.95;52.88;101567.25;5042378;28;21004;-56
2022/09/06 10:08:58;;;;;;;5.07;2.80;;;;;;;19.14;52.59;101556.22;5043018;28;20234;-56
2022/09/06 10:11:40;;;;;;;3.22;2.83;;;;;;;19.31;52.55;101554.03;5038555;28;20234;-56
2022/09/06 10:14:11;;;;;;;4.75;3.67;;;;;;;19.24;52.32;101547.97;5052358;28;20238;-55
2022/09/06 10:16:43;;;;;;;6.05;3.47;;;;;;;19.24;52.45;101547.09;5040041;28;20236;-57
2022/09/06 10:19:21;;;;;;;5.03;2.58;;;;;;;19.42;52.21;101553.75;5041552;28;20829;-57
2022/09/06 10:21:48;;;;;;;3.83;2.85;;;;;;;19.28;52.67;101546.97;5042525;28;20227;-56
2022/09/06 10:24:22;;;;;;;7.72;2.83;;;;;;;19.33;52.06;101552.19;5045142;28;20314;-56
2022/09/06 10:26:51;;;;;;;4.70;3.13;;;;;;;19.55;52.32;101549.88;5039772;28;20243;-56
2022/09/06 10:29:26;;;;;;;8.52;3.22;;;;;;;19.66;51.68;101546.97;5041693;28;20231;-56
2022/09/06 10:32:03;;;;;;;6.45;3.58;;;;;;;19.68;51.75;101542.47;5036022;28;20382;-56
2022/09/06 10:35:08;;;;;;;6.65;3.53;;;;;;;19.73;51.82;101543.25;5041276;28;20236;-56
2022/09/06 10:37:45;;;;;;;7.97;3.83;;;;;;;19.85;50.99;101542.91;4983628;28;20291;-58
2022/09/06 10:40:13;;;;;;;8.23;3.88;;;;;;;19.87;51.12;101535.75;5040029;28;20394;-57
2022/09/06 10:42:45;;;;;;;5.63;3.80;;;;;;;19.95;50.88;101530.22;5047619;28;20239;-56
2022/09/06 10:45:20;;;;;;;4.38;3.05;;;;;;;19.90;50.68;101542.78;5033360;28;20944;-56
2022/09/06 10:48:00;;;;;;;4.82;3.67;;;;;;;19.87;51.03;101538.44;5047469;28;20215;-56
2022/09/06 10:50:34;;;;;;;3.45;3.15;;;;;;;19.83;50.74;101534.09;5043010;28;20660;-56
2022/09/06 10:53:07;;;;;;;5.00;3.20;;;;;;;19.71;51.56;101529.06;5034903;28;20281;-54
2022/09/06 10:55:34;;;;;;;4.10;3.70;;;;;;;19.73;51.22;101529.94;5042436;28;25103;-56
2022/09/06 10:58:03;;;;;;;5.32;3.65;;;;;;;19.82;51.88;101523.47;5049391;28;20247;-56
2022/09/06 11:00:33;;;;;;;7.80;3.63;;;;;;;19.83;51.10;101522.53;5039470;28;20697;-55
2022/09/06 11:03:04;;;;;;;5.72;3.25;;;;;;;19.90;51.27;101517.03;5040171;28;20255;-56
2022/09/06 11:05:33;;;;;;;6.00;3.80;;;;;;;20.06;50.72;101516.59;5037255;28;20228;-56
2022/09/06 11:08:01;;;;;;;3.65;3.35;;;;;;;20.17;50.51;101514.50;5040127;28;20323;-56
2022/09/06 11:10:31;;;;;;;7.50;2.95;;;;;;;20.19;50.42;101526.88;5029012;28;20232;-55
2022/09/06 11:13:00;;;;;;;3.35;3.08;;;;;;;20.22;50.67;101524.13;5039790;28;20243;-56
2022/09/06 11:15:32;;;;;;;4.65;3.03;;;;;;;20.31;49.48;101525.63;5042472;28;20239;-56
2022/09/06 11:18:03;;;;;;;5.53;3.75;;;;;;;20.17;49.92;101525.16;5039582;28;20227;-55
2022/09/06 11:20:34;;;;;;;6.32;3.20;;;;;;;20.14;50.13;101522.56;5033101;28;20263;-56
2022/09/06 11:23:22;;;;;;;4.63;3.30;;;;;;;20.20;50.09;101522.41;5029021;28;20232;-55
2022/09/06 11:26:02;;;;;;;6.50;3.35;;;;;;;20.16;50.12;101528.75;5034659;28;20277;-55
2022/09/06 11:28:33;;;;;;;7.13;3.42;;;;;;;20.20;49.93;101514.41;5037008;28;20231;-56
2022/09/06 11:31:02;;;;;;;3.22;2.92;;;;;;;20.14;51.07;101514.56;5045421;28;20228;-55
2022/09/06 11:33:30;;;;;;;3.78;3.47;;;;;;;20.23;49.67;101509.00;5034255;28;20231;-57